Time;durP1;ratioP1;P1;durP2;ratioP2;P2;SDS_P1;SDS_P2;PMS_P1;PMS_P2;Temp;Humidity;BMP_temperature;BMP_pressure;BME280_temperature;BME280_humidity;BME280_pressure;Samples;Min_cycle;Max_cycle;Signal;HPM_P1;HPM_P2
2023/12/03 00:02:05;;;;;;;12.35;5.40;;;2.50;92.30;;;;;;6101296;23;20010;-80
2023/12/03 00:04:30;;;;;;;12.07;5.70;;;2.60;92.10;;;;;;6100636;23;20006;-82
2023/12/03 00:06:56;;;;;;;11.57;5.45;;;2.60;92.10;;;;;;6100086;23;20002;-80
2023/12/03 00:09:22;;;;;;;11.15;5.07;;;2.60;92.10;;;;;;6126896;23;20006;-81
2023/12/03 00:11:47;;;;;;;8.23;4.30;;;2.70;92.10;;;;;;6101952;23;20006;-81
2023/12/03 00:14:13;;;;;;;10.35;4.43;;;2.60;92.10;;;;;;6127112;23;20041;-81
2023/12/03 00:16:38;;;;;;;9.35;4.15;;;2.60;92.10;;;;;;6100915;23;20006;-79
2023/12/03 00:19:04;;;;;;;11.90;4.97;;;2.60;92.20;;;;;;6101113;23;20009;-81
2023/12/03 00:21:30;;;;;;;8.90;4.35;;;2.60;92.20;;;;;;6127082;23;20002;-77
2023/12/03 00:23:55;;;;;;;13.07;5.72;;;2.60;92.20;;;;;;6125657;23;20014;-80
2023/12/03 00:26:21;;;;;;;10.25;4.75;;;2.60;92.20;;;;;;6101071;23;20002;-80
2023/12/03 00:28:46;;;;;;;13.60;5.75;;;2.60;92.20;;;;;;6126103;23;20479;-77
2023/12/03 00:31:12;;;;;;;8.90;4.20;;;2.60;92.20;;;;;;6124783;23;20434;-79
2023/12/03 00:33:37;;;;;;;9.40;4.53;;;2.60;92.20;;;;;;6100113;23;20010;-79
2023/12/03 00:36:03;;;;;;;11.00;5.00;;;2.70;92.30;;;;;;6126029;23;20033;-81
2023/12/03 00:38:29;;;;;;;10.40;4.30;;;2.70;92.30;;;;;;6100412;23;20009;-78
2023/12/03 00:40:54;;;;;;;12.05;4.60;;;2.70;92.30;;;;;;6123969;23;20005;-79
2023/12/03 00:43:20;;;;;;;12.77;6.00;;;2.70;92.30;;;;;;6098673;23;20009;-81
2023/12/03 00:45:46;;;;;;;10.52;5.35;;;2.70;92.30;;;;;;6099279;23;20013;-78
2023/12/03 00:48:12;;;;;;;13.18;6.18;;;2.70;92.30;;;;;;6124555;23;20006;-78
2023/12/03 00:50:38;;;;;;;11.18;5.07;;;2.70;92.30;;;;;;6098909;23;20016;-78
2023/12/03 00:53:03;;;;;;;10.27;4.32;;;2.70;92.30;;;;;;6098739;23;20010;-80
2023/12/03 00:55:29;;;;;;;7.90;3.75;;;2.70;92.30;;;;;;6098236;23;20002;-80
2023/12/03 00:57:54;;;;;;;9.77;4.18;;;2.70;92.20;;;;;;6097743;23;20490;-78
2023/12/03 01:00:20;;;;;;;9.95;4.15;;;2.70;92.20;;;;;;6124250;23;20021;-81
2023/12/03 01:02:45;;;;;;;13.93;6.30;;;2.70;92.30;;;;;;6099264;23;20016;-80
2023/12/03 01:05:11;;;;;;;14.10;5.47;;;2.60;92.30;;;;;;6124442;23;20005;-81
2023/12/03 01:07:36;;;;;;;7.47;4.05;;;2.60;92.40;;;;;;6124564;23;20001;-77
2023/12/03 01:10:02;;;;;;;9.50;3.95;;;2.70;92.40;;;;;;6098687;23;20065;-80
2023/12/03 01:12:28;;;;;;;11.77;4.47;;;2.70;92.40;;;;;;6099044;23;20035;-82
2023/12/03 01:14:54;;;;;;;10.45;4.60;;;2.70;92.40;;;;;;6124777;23;20009;-80
2023/12/03 01:17:19;;;;;;;19.50;8.52;;;2.70;92.30;;;;;;6099772;23;20012;-80
2023/12/03 01:19:45;;;;;;;18.33;7.30;;;2.60;92.40;;;;;;6098360;23;20013;-78
2023/12/03 01:22:10;;;;;;;13.82;5.78;;;2.60;92.40;;;;;;6125406;23;20349;-83
2023/12/03 01:24:36;;;;;;;13.98;5.70;;;2.50;92.40;;;;;;6099141;23;20401;-80
2023/12/03 01:27:02;;;;;;;14.60;5.68;;;2.50;92.50;;;;;;6124875;23;20009;-77
2023/12/03 01:29:27;;;;;;;12.15;5.13;;;2.50;92.60;;;;;;6099616;23;20013;-76
2023/12/03 01:31:53;;;;;;;14.52;5.38;;;2.50;92.60;;;;;;6111436;23;20004;-80
2023/12/03 01:34:19;;;;;;;11.95;4.55;;;2.40;92.60;;;;;;6128278;23;20006;-79
2023/12/03 01:36:44;;;;;;;10.57;4.40;;;2.40;92.70;;;;;;6099866;23;20041;-80
2023/12/03 01:39:10;;;;;;;8.95;4.55;;;2.40;92.80;;;;;;6096466;23;20006;-79
2023/12/03 01:41:35;;;;;;;7.78;3.50;;;2.40;92.80;;;;;;6097310;23;20069;-79
2023/12/03 01:44:01;;;;;;;7.90;3.40;;;2.40;92.80;;;;;;6122721;23;20009;-78
2023/12/03 01:46:27;;;;;;;10.57;4.10;;;2.50;92.90;;;;;;6096104;23;20012;-78
2023/12/03 01:48:53;;;;;;;7.50;3.45;;;2.50;92.90;;;;;;6095496;23;20018;-79
2023/12/03 01:51:19;;;;;;;8.48;3.95;;;2.60;92.90;;;;;;6096350;23;20005;-79
2023/12/03 01:53:46;;;;;;;7.75;3.42;;;2.60;92.90;;;;;;6096828;23;20006;-78
2023/12/03 01:56:12;;;;;;;8.38;3.72;;;2.50;92.90;;;;;;6095375;23;20005;-79
2023/12/03 01:58:38;;;;;;;8.10;3.63;;;2.50;92.90;;;;;;6122812;23;20022;-78
2023/12/03 02:01:05;;;;;;;9.38;4.35;;;2.60;93.00;;;;;;6123609;23;20407;-81
2023/12/03 02:03:31;;;;;;;8.57;3.38;;;2.60;93.00;;;;;;6124270;23;20006;-80
2023/12/03 02:06:10;;;;;;;7.55;3.35;;;2.60;93.10;;;;;;6097156;23;20033;-81
2023/12/03 02:08:36;;;;;;;6.70;3.10;;;2.70;93.10;;;;;;6097512;23;20021;-81
2023/12/03 02:11:06;;;;;;;7.70;3.42;;;2.70;93.10;;;;;;6098348;23;20503;-81
2023/12/03 02:13:34;;;;;;;7.28;3.38;;;2.80;93.00;;;;;;6099471;23;20006;-82
2023/12/03 02:16:00;;;;;;;6.85;3.15;;;2.80;93.10;;;;;;6124444;23;20002;-81
2023/12/03 02:18:26;;;;;;;7.97;3.40;;;2.70;93.30;;;;;;6097953;23;20033;-81
2023/12/03 02:20:53;;;;;;;9.40;4.10;;;2.80;93.00;;;;;;6099127;23;20355;-81
2023/12/03 02:23:19;;;;;;;8.38;3.33;;;2.80;93.00;;;;;;6124350;23;20017;-80
2023/12/03 02:25:45;;;;;;;8.50;4.18;;;2.80;93.00;;;;;;6098365;23;20018;-81
2023/12/03 02:28:10;;;;;;;8.30;3.80;;;2.90;93.00;;;;;;6099455;23;20088;-82
2023/12/03 02:30:36;;;;;;;9.20;3.67;;;2.90;93.00;;;;;;6126490;23;20006;-82
2023/12/03 02:33:02;;;;;;;6.82;3.05;;;2.90;93.00;;;;;;6125671;23;20013;-82
2023/12/03 02:35:29;;;;;;;6.07;2.95;;;2.90;93.00;;;;;;6099432;23;20037;-80
2023/12/03 02:37:54;;;;;;;6.25;2.75;;;2.90;93.00;;;;;;6099131;23;20072;-82
2023/12/03 02:40:20;;;;;;;8.57;3.72;;;3.00;93.10;;;;;;6097598;23;20456;-82
2023/12/03 02:42:46;;;;;;;9.02;3.17;;;3.00;93.00;;;;;;6099018;23;20010;-81
2023/12/03 02:45:12;;;;;;;8.25;2.88;;;3.00;93.10;;;;;;6125539;23;20033;-83
2023/12/03 02:47:37;;;;;;;11.40;4.90;;;3.00;93.00;;;;;;6100440;23;20005;-81
2023/12/03 02:50:04;;;;;;;7.93;3.65;;;3.00;93.00;;;;;;6100251;23;20006;-82
2023/12/03 02:52:29;;;;;;;9.70;3.53;;;3.00;93.00;;;;;;6100177;23;20010;-82
2023/12/03 02:54:55;;;;;;;6.15;2.70;;;3.10;93.10;;;;;;6098933;23;20044;-81
2023/12/03 02:57:21;;;;;;;5.90;2.67;;;3.10;93.10;;;;;;6099316;23;19998;-81
2023/12/03 02:59:46;;;;;;;7.97;3.08;;;3.10;93.00;;;;;;6123668;23;20336;-81
2023/12/03 03:02:12;;;;;;;12.35;3.67;;;3.10;93.10;;;;;;6099225;23;20363;-80
2023/12/03 03:04:37;;;;;;;8.55;3.72;;;3.10;93.10;;;;;;6098710;23;20180;-80
2023/12/03 03:07:03;;;;;;;8.57;3.85;;;3.10;93.10;;;;;;6099064;23;20421;-80
2023/12/03 03:09:28;;;;;;;8.15;3.70;;;3.10;93.20;;;;;;6098750;23;20032;-79
2023/12/03 03:11:57;;;;;;;7.75;3.25;;;3.10;93.20;;;;;;6098957;23;20020;-81
2023/12/03 03:14:22;;;;;;;6.63;2.80;;;3.10;93.50;;;;;;6125270;23;20002;-80
2023/12/03 03:16:48;;;;;;;8.88;3.80;;;3.10;93.20;;;;;;6098109;23;20501;-80
2023/12/03 03:19:13;;;;;;;7.68;3.00;;;3.10;93.20;;;;;;6099294;23;20387;-80
2023/12/03 03:21:39;;;;;;;5.57;2.85;;;3.20;93.20;;;;;;6125408;23;20006;-80
2023/12/03 03:24:05;;;;;;;6.20;2.80;;;3.30;93.50;;;;;;6124825;23;20204;-79
2023/12/03 03:26:31;;;;;;;8.85;3.50;;;3.30;93.20;;;;;;6096788;23;20490;-81
2023/12/03 03:28:57;;;;;;;8.63;4.30;;;3.20;93.20;;;;;;6097898;23;20006;-79
2023/12/03 03:31:22;;;;;;;10.15;4.20;;;3.30;93.20;;;;;;6097157;23;20006;-81
2023/12/03 03:33:49;;;;;;;9.88;3.80;;;3.30;93.20;;;;;;6096962;23;20501;-78
2023/12/03 03:36:15;;;;;;;11.73;4.57;;;3.30;93.20;;;;;;6122619;23;20005;-81
2023/12/03 03:38:44;;;;;;;9.82;4.20;;;3.30;93.20;;;;;;6120957;23;20030;-80
2023/12/03 03:41:11;;;;;;;14.73;5.75;;;3.30;93.50;;;;;;6097744;23;20456;-78
2023/12/03 03:43:36;;;;;;;10.45;4.93;;;3.30;93.20;;;;;;6097811;23;20040;-81
2023/12/03 03:46:02;;;;;;;11.85;5.03;;;3.30;93.20;;;;;;6101036;23;20006;-79
2023/12/03 03:48:28;;;;;;;11.90;5.03;;;3.30;93.20;;;;;;6101008;23;20010;-80
2023/12/03 03:50:53;;;;;;;9.80;4.35;;;3.30;93.30;;;;;;6124981;23;20005;-81
2023/12/03 03:53:19;;;;;;;9.75;4.10;;;3.40;93.30;;;;;;6125293;23;20030;-79
2023/12/03 03:55:45;;;;;;;16.73;7.18;;;3.30;93.30;;;;;;6097668;23;20450;-79
2023/12/03 03:58:10;;;;;;;13.98;6.03;;;3.30;93.30;;;;;;6098212;23;20014;-77
2023/12/03 04:00:36;;;;;;;12.70;6.00;;;3.30;93.30;;;;;;6122306;23;20002;-79
2023/12/03 04:03:01;;;;;;;14.57;6.82;;;3.40;93.40;;;;;;6097726;23;20002;-79
2023/12/03 04:05:27;;;;;;;14.45;6.30;;;3.40;93.40;;;;;;6098113;23;20029;-79
2023/12/03 04:07:53;;;;;;;11.68;5.70;;;3.30;93.30;;;;;;6124170;23;19998;-80
2023/12/03 04:10:18;;;;;;;9.90;4.95;;;3.40;93.40;;;;;;6124891;23;20493;-79
2023/12/03 04:12:44;;;;;;;9.23;4.63;;;3.40;93.40;;;;;;6123438;23;20064;-79
2023/12/03 04:15:10;;;;;;;6.97;3.75;;;3.40;93.40;;;;;;6096752;23;20097;-79
2023/12/03 04:17:35;;;;;;;10.70;5.18;;;3.40;93.40;;;;;;6098595;23;20009;-79
2023/12/03 04:20:01;;;;;;;10.30;4.88;;;3.40;93.40;;;;;;6124400;23;20010;-80
2023/12/03 04:22:28;;;;;;;11.15;5.32;;;3.40;93.40;;;;;;6125011;23;20028;-80
2023/12/03 04:24:54;;;;;;;12.02;5.13;;;3.40;93.50;;;;;;6098168;23;20002;-79
2023/12/03 04:27:19;;;;;;;9.98;4.75;;;3.40;93.50;;;;;;6099303;23;20348;-80
2023/12/03 04:29:45;;;;;;;9.20;4.35;;;3.40;93.50;;;;;;6125064;23;20010;-79
2023/12/03 04:32:11;;;;;;;11.02;5.85;;;3.40;93.50;;;;;;6100669;23;20012;-78
2023/12/03 04:34:39;;;;;;;11.65;6.28;;;3.40;93.50;;;;;;6095173;23;20025;-81
2023/12/03 04:40:22;;;;;;;8.50;4.60;;;3.50;93.60;;;;;;6124681;23;20006;-82
2023/12/03 04:42:57;;;;;;;10.95;5.32;;;3.40;93.60;;;;;;6098806;23;20032;-80
2023/12/03 04:48:20;;;;;;;11.45;6.35;;;3.50;93.60;;;;;;6113631;23;20010;-80
2023/12/03 04:50:48;;;;;;;9.32;4.85;;;3.50;93.50;;;;;;6096990;23;20013;-80
2023/12/03 04:53:19;;;;;;;14.35;7.13;;;3.50;93.60;;;;;;6123789;23;20077;-83
2023/12/03 04:55:51;;;;;;;11.87;5.10;;;3.50;93.50;;;;;;6098384;23;20002;-83
2023/12/03 04:58:16;;;;;;;13.77;7.32;;;3.50;93.50;;;;;;6097416;23;20238;-80
2023/12/03 05:00:42;;;;;;;24.15;11.90;;;3.50;93.80;;;;;;6124399;23;20017;-82
2023/12/03 05:03:08;;;;;;;18.98;8.98;;;3.40;93.50;;;;;;6124275;23;20503;-80
2023/12/03 05:05:33;;;;;;;14.35;7.65;;;3.40;93.50;;;;;;6096698;23;20017;-79
2023/12/03 05:07:59;;;;;;;17.92;8.80;;;3.40;93.50;;;;;;6123445;23;20432;-80
2023/12/03 05:10:25;;;;;;;15.63;8.18;;;3.40;93.50;;;;;;6097824;23;20009;-80
2023/12/03 05:13:29;;;;;;;23.98;11.95;;;3.40;93.60;;;;;;6096188;23;20002;-81
2023/12/03 05:16:30;;;;;;;;;;;;;;;;;;;;;
2023/12/03 05:18:56;;;;;;;17.95;8.95;;;3.30;93.70;;;;;;6118018;23;20081;-82
2023/12/03 05:21:22;;;;;;;15.20;7.22;;;3.20;93.60;;;;;;6099323;23;20344;-82
2023/12/03 05:23:47;;;;;;;13.05;6.70;;;3.30;93.70;;;;;;6099031;23;20089;-80
2023/12/03 05:26:13;;;;;;;16.52;8.10;;;3.20;93.70;;;;;;6122766;23;20002;-81
2023/12/03 05:28:42;;;;;;;13.30;6.72;;;3.20;93.80;;;;;;6120423;23;20396;-78
2023/12/03 05:31:32;;;;;;;13.52;7.00;;;3.20;93.80;;;;;;6096669;23;20540;-79
2023/12/03 05:34:19;;;;;;;14.90;7.65;;;3.20;93.90;;;;;;6108031;23;20085;-80
2023/12/03 05:36:58;;;;;;;16.27;7.40;;;3.20;93.80;;;;;;6101800;23;20021;-82
2023/12/03 05:39:56;;;;;;;16.70;7.82;;;3.10;93.80;;;;;;6100128;23;20057;-80
2023/12/03 05:42:22;;;;;;;15.57;7.38;;;3.10;93.80;;;;;;6100135;23;20168;-82
2023/12/03 05:44:47;;;;;;;21.48;10.30;;;3.10;93.80;;;;;;6125681;23;20002;-82
2023/12/03 05:47:18;;;;;;;19.25;9.55;;;3.00;93.90;;;;;;6125835;23;20013;-79
2023/12/03 05:49:44;;;;;;;19.43;8.83;;;2.90;93.90;;;;;;6099251;23;20009;-82
2023/12/03 05:52:50;;;;;;;20.15;9.82;;;2.90;93.90;;;;;;6124690;23;20006;-79
2023/12/03 05:55:33;;;;;;;18.02;9.10;;;2.80;94.00;;;;;;6124285;23;20013;-80
2023/12/03 05:58:28;;;;;;;25.67;12.43;;;2.80;94.00;;;;;;6104550;23;20002;-79
2023/12/03 06:01:05;;;;;;;23.38;11.68;;;2.80;94.10;;;;;;6097285;23;20537;-81
2023/12/03 06:03:57;;;;;;;23.05;11.40;;;2.70;94.10;;;;;;6098493;23;20006;-80
2023/12/03 06:09:56;;;;;;;14.00;6.78;;;2.70;94.20;;;;;;6134464;23;20386;-80
2023/12/03 06:12:22;;;;;;;21.13;9.90;;;2.70;94.30;;;;;;6091433;23;20384;-79
2023/12/03 06:14:56;;;;;;;16.65;8.25;;;2.60;94.20;;;;;;6125179;23;19998;-80
2023/12/03 06:18:05;;;;;;;24.80;12.45;;;2.70;94.30;;;;;;6101983;23;20002;-81
2023/12/03 06:20:53;;;;;;;22.17;10.65;;;2.60;94.30;;;;;;6127034;23;19998;-81
2023/12/03 06:23:32;;;;;;;27.75;13.35;;;2.60;94.40;;;;;;6101351;23;20494;-82
2023/12/03 06:28:43;;;;;;;22.38;11.23;;;2.60;94.40;;;;;;6128175;23;20020;-81
2023/12/03 06:31:13;;;;;;;19.80;10.50;;;2.50;94.40;;;;;;6104870;23;20311;-83
2023/12/03 06:33:38;;;;;;;24.15;11.48;;;2.50;94.40;;;;;;6114983;23;20020;-81
2023/12/03 06:36:05;;;;;;;20.10;9.50;;;2.50;94.40;;;;;;6112620;23;20006;-82
2023/12/03 06:38:31;;;;;;;21.58;9.63;;;2.50;94.50;;;;;;6099373;23;20503;-81
2023/12/03 06:40:56;;;;;;;21.33;10.07;;;2.50;94.50;;;;;;6099678;23;20001;-80
2023/12/03 06:44:01;;;;;;;;;;;;;;;;;;;;;
2023/12/03 06:49:35;;;;;;;18.95;10.18;;;2.60;94.50;;;;;;6063343;23;20031;-80
2023/12/03 06:52:09;;;;;;;22.30;10.38;;;2.50;94.40;;;;;;6124430;23;20072;-81
2023/12/03 06:54:35;;;;;;;19.55;9.40;;;2.50;94.50;;;;;;6098974;23;19998;-81
2023/12/03 06:57:16;;;;;;;24.52;10.95;;;2.50;94.50;;;;;;6094823;23;20061;-82
2023/12/03 06:59:44;;;;;;;23.50;11.85;;;2.40;94.50;;;;;;6097545;23;20056;-82
2023/12/03 07:02:12;;;;;;;24.67;11.02;;;2.40;94.50;;;;;;6095932;23;20440;-80
2023/12/03 07:04:53;;;;;;;22.75;10.13;;;2.30;94.60;;;;;;6099189;23;20432;-81
2023/12/03 07:07:35;;;;;;;22.90;10.75;;;2.30;94.60;;;;;;6100204;23;20013;-81
2023/12/03 07:10:07;;;;;;;22.25;11.35;;;2.20;94.60;;;;;;6097220;23;20060;-81
2023/12/03 07:12:38;;;;;;;;;;;2.20;94.70;;;;;;6101885;23;20009;-82
2023/12/03 07:15:12;;;;;;;22.33;10.32;;;2.10;94.70;;;;;;6127956;23;20407;-81
2023/12/03 07:17:53;;;;;;;23.95;12.05;;;2.10;94.80;;;;;;6128089;23;20106;-82
2023/12/03 07:20:38;;;;;;;23.90;11.73;;;2.00;94.80;;;;;;6102335;23;20436;-80
2023/12/03 07:23:12;;;;;;;27.13;12.75;;;2.00;94.90;;;;;;6104555;23;20050;-80
2023/12/03 07:25:38;;;;;;;24.35;11.48;;;1.90;94.90;;;;;;6100709;23;20006;-82
2023/12/03 07:28:10;;;;;;;23.02;10.40;;;1.90;94.90;;;;;;6103619;23;20006;-81
2023/12/03 07:30:36;;;;;;;21.95;10.95;;;1.90;95.00;;;;;;6130352;23;20537;-83
2023/12/03 07:33:11;;;;;;;18.02;8.45;;;1.90;95.00;;;;;;6101713;23;20006;-81
2023/12/03 07:35:36;;;;;;;15.05;6.97;;;1.80;95.00;;;;;;6119858;23;20057;-84
2023/12/03 07:38:02;;;;;;;26.52;11.48;;;1.90;95.10;;;;;;6125183;23;20005;-81
2023/12/03 07:40:44;;;;;;;23.58;11.07;;;1.90;95.00;;;;;;6108527;23;20495;-81
2023/12/03 07:43:15;;;;;;;32.45;14.57;;;1.90;95.10;;;;;;6112197;23;20010;-83
2023/12/03 07:45:47;;;;;;;24.92;11.02;;;1.80;95.00;;;;;;6121414;23;20018;-81
2023/12/03 07:48:36;;;;;;;28.83;12.90;;;1.70;95.00;;;;;;6119437;23;20042;-82
2023/12/03 07:51:29;;;;;;;23.73;10.40;;;1.70;95.10;;;;;;6127338;23;20528;-80
2023/12/03 07:54:15;;;;;;;25.02;11.35;;;1.80;95.20;;;;;;6100327;23;19998;-81
2023/12/03 07:56:57;;;;;;;23.05;10.20;;;1.60;95.20;;;;;;6100871;23;20002;-81
2023/12/03 08:04:04;;;;;;;18.13;7.85;;;1.70;95.20;;;;;;5999207;23;20013;-80
2023/12/03 08:07:20;;;;;;;;;;;;;;;;;;;;;
2023/12/03 08:10:19;;;;;;;22.50;10.38;;;1.80;95.20;;;;;;6119509;23;20085;-79
2023/12/03 08:19:55;;;;;;;16.15;6.68;;;1.80;95.00;;;;;;6000006;23;20064;-79
2023/12/03 08:22:29;;;;;;;16.17;8.15;;;1.90;95.00;;;;;;6108864;23;20002;-80
2023/12/03 08:25:14;;;;;;;19.73;9.35;;;1.90;94.90;;;;;;6101401;23;19998;-80
2023/12/03 08:27:58;;;;;;;21.00;8.65;;;2.00;94.80;;;;;;6100058;23;20009;-80
2023/12/03 08:30:45;;;;;;;18.73;8.82;;;2.00;94.80;;;;;;6100189;23;20006;-80
2023/12/03 08:33:13;;;;;;;16.45;8.15;;;2.00;94.70;;;;;;6100269;23;20056;-80
2023/12/03 08:35:43;;;;;;;23.42;9.82;;;2.00;94.70;;;;;;6127022;23;20001;-80
2023/12/03 08:38:15;;;;;;;31.98;13.40;;;2.00;94.60;;;;;;6102086;23;20021;-79
2023/12/03 08:43:52;;;;;;;21.95;10.25;;;1.90;94.50;;;;;;6129286;23;20017;-80
2023/12/03 08:47:00;;;;;;;22.35;9.00;;;1.90;94.50;;;;;;6125160;23;20002;-80
2023/12/03 08:49:38;;;;;;;15.30;6.95;;;2.00;94.50;;;;;;6071422;23;20010;-79
2023/12/03 08:52:37;;;;;;;16.08;6.55;;;2.00;94.50;;;;;;6100204;23;20002;-80
2023/12/03 08:55:45;;;;;;;;;;;;;;;;;;;;;
2023/12/03 08:58:14;;;;;;;18.17;7.95;;;2.10;94.50;;;;;;6121574;23;20101;-79
2023/12/03 09:00:40;;;;;;;21.02;9.90;;;1.90;94.40;;;;;;6098290;23;20010;-81
2023/12/03 09:03:06;;;;;;;22.55;9.55;;;2.10;94.40;;;;;;6099972;23;20026;-81
2023/12/03 09:05:35;;;;;;;22.33;10.00;;;2.00;94.40;;;;;;6099178;23;20408;-79
2023/12/03 09:08:05;;;;;;;22.50;9.93;;;2.00;94.30;;;;;;6101070;23;20028;-80
2023/12/03 09:10:34;;;;;;;17.90;8.18;;;2.10;94.60;;;;;;6126685;23;20066;-79
2023/12/03 09:13:20;;;;;;;23.67;9.70;;;2.00;94.20;;;;;;6128146;23;20080;-80
2023/12/03 09:16:02;;;;;;;15.25;7.18;;;2.20;94.20;;;;;;6101412;23;20014;-81
2023/12/03 09:18:38;;;;;;;;;;;2.40;94.20;;;;;;6103408;23;20489;-82
2023/12/03 09:21:16;;;;;;;14.90;6.63;;;2.30;94.00;;;;;;6104036;23;20239;-83
2023/12/03 09:23:47;;;;;;;24.10;10.25;;;2.20;94.00;;;;;;6130351;23;20092;-82
2023/12/03 09:26:24;;;;;;;26.95;11.70;;;2.20;93.90;;;;;;6130202;23;20407;-82
2023/12/03 09:28:50;;;;;;;23.17;9.90;;;2.20;93.80;;;;;;6131138;23;20002;-83
2023/12/03 09:31:18;;;;;;;20.83;9.05;;;2.20;93.70;;;;;;6134292;23;20005;-83
2023/12/03 09:33:44;;;;;;;25.25;10.98;;;2.20;93.60;;;;;;6116668;23;20025;-82
2023/12/03 09:36:10;;;;;;;19.90;9.23;;;2.30;93.50;;;;;;6110400;23;20010;-82
2023/12/03 09:38:36;;;;;;;18.95;8.57;;;2.30;93.30;;;;;;6125353;23;19994;-83
2023/12/03 09:41:13;;;;;;;22.70;10.27;;;2.30;93.30;;;;;;6127476;23;20036;-82
2023/12/03 09:43:41;;;;;;;24.10;10.70;;;2.40;93.30;;;;;;6101483;23;20002;-81
2023/12/03 09:46:14;;;;;;;23.25;10.10;;;2.40;93.20;;;;;;6100641;23;20006;-83
2023/12/03 09:48:42;;;;;;;20.20;9.20;;;2.40;93.00;;;;;;6100128;23;20029;-83
2023/12/03 09:51:12;;;;;;;20.83;9.00;;;2.50;93.00;;;;;;6103218;23;20037;-82
2023/12/03 09:53:43;;;;;;;20.00;9.32;;;2.50;92.90;;;;;;6103403;23;20049;-82
2023/12/03 09:56:15;;;;;;;24.33;10.52;;;2.60;92.80;;;;;;6102264;23;20002;-82
2023/12/03 09:58:42;;;;;;;;;;;2.60;92.60;;;;;;6129806;23;20005;-82
2023/12/03 10:01:08;;;;;;;23.38;10.38;;;2.60;92.50;;;;;;6102860;23;20011;-82
2023/12/03 10:03:34;;;;;;;24.50;11.38;;;2.60;92.30;;;;;;6102167;23;20041;-83
2023/12/03 10:06:13;;;;;;;21.42;9.98;;;2.70;92.10;;;;;;6102306;23;20010;-81
2023/12/03 10:08:42;;;;;;;25.63;11.40;;;2.70;92.00;;;;;;6129156;23;20002;-82
2023/12/03 10:11:13;;;;;;;25.63;9.43;;;2.60;91.80;;;;;;6127436;23;20395;-81
2023/12/03 10:14:01;;;;;;;21.65;11.00;;;2.70;91.70;;;;;;6101029;23;20089;-82
2023/12/03 10:16:38;;;;;;;16.65;8.23;;;2.70;91.50;;;;;;6102597;23;20013;-83
2023/12/03 10:19:04;;;;;;;19.30;8.45;;;2.80;91.40;;;;;;6127890;23;19998;-84
2023/12/03 10:21:33;;;;;;;19.17;9.13;;;2.90;91.40;;;;;;6129871;23;20034;-83
2023/12/03 10:24:08;;;;;;;18.92;8.27;;;2.80;91.30;;;;;;6128953;23;20062;-83
2023/12/03 10:27:00;;;;;;;20.63;9.05;;;2.80;91.30;;;;;;6129741;23;20061;-83
2023/12/03 10:29:32;;;;;;;24.10;10.60;;;2.90;91.30;;;;;;6100972;23;20099;-82
2023/12/03 10:32:03;;;;;;;26.80;11.52;;;3.00;91.00;;;;;;6100913;23;20412;-82
2023/12/03 10:34:29;;;;;;;23.17;10.98;;;2.90;90.60;;;;;;6126359;23;20005;-80
2023/12/03 10:36:54;;;;;;;23.42;9.90;;;2.90;90.40;;;;;;6098228;23;20010;-81
2023/12/03 10:39:20;;;;;;;22.92;10.10;;;2.90;90.40;;;;;;6098085;23;20009;-80
2023/12/03 10:41:47;;;;;;;25.40;10.68;;;2.90;90.40;;;;;;6100426;23;20006;-82
2023/12/03 10:44:17;;;;;;;16.10;7.75;;;3.00;90.30;;;;;;6098176;23;20012;-82
2023/12/03 10:46:44;;;;;;;16.40;6.93;;;3.00;90.30;;;;;;6125873;23;20013;-80
2023/12/03 10:49:12;;;;;;;16.23;7.70;;;3.10;90.40;;;;;;6121822;23;20422;-82
2023/12/03 10:51:40;;;;;;;16.67;8.02;;;3.30;90.30;;;;;;6126793;23;20009;-82
2023/12/03 10:54:06;;;;;;;19.00;8.50;;;3.30;90.20;;;;;;6099742;23;20392;-81
2023/12/03 10:56:33;;;;;;;16.13;7.50;;;3.30;90.10;;;;;;6127168;23;20033;-82
2023/12/03 10:59:03;;;;;;;20.42;9.60;;;3.30;90.10;;;;;;6127358;23;20466;-80
2023/12/03 11:01:30;;;;;;;15.02;7.18;;;3.30;90.00;;;;;;6097802;23;20088;-79
2023/12/03 11:04:08;;;;;;;14.85;6.82;;;3.40;90.00;;;;;;6121232;23;20001;-79
2023/12/03 11:06:34;;;;;;;15.25;6.90;;;3.40;89.80;;;;;;6092339;23;20002;-79
2023/12/03 11:09:01;;;;;;;17.88;8.80;;;3.40;89.90;;;;;;6093462;23;20041;-81
2023/12/03 11:11:27;;;;;;;19.77;8.93;;;3.50;89.50;;;;;;6095615;23;20061;-79
2023/12/03 11:13:54;;;;;;;14.23;6.95;;;3.40;89.10;;;;;;6116827;23;20424;-78
2023/12/03 11:16:21;;;;;;;22.05;9.73;;;3.50;89.30;;;;;;6095536;23;20001;-80
2023/12/03 11:19:03;;;;;;;20.60;9.88;;;3.60;88.60;;;;;;6123741;23;20053;-81
2023/12/03 11:21:57;;;;;;;19.00;8.55;;;3.50;87.80;;;;;;6099576;23;20012;-78
2023/12/03 11:24:48;;;;;;;17.17;7.80;;;3.50;87.70;;;;;;6098898;23;20013;-81
2023/12/03 11:27:14;;;;;;;12.50;6.28;;;3.60;87.20;;;;;;6100826;23;20056;-81
2023/12/03 11:29:49;;;;;;;14.57;7.40;;;3.60;87.20;;;;;;6098342;23;20001;-81
2023/12/03 11:32:16;;;;;;;16.55;7.88;;;3.70;86.90;;;;;;6100430;23;20579;-82
2023/12/03 11:34:43;;;;;;;18.08;8.88;;;3.70;86.80;;;;;;6100050;23;20010;-81
2023/12/03 11:37:09;;;;;;;20.40;10.60;;;3.70;86.60;;;;;;6097061;23;20016;-81
2023/12/03 11:39:47;;;;;;;16.20;8.02;;;3.70;86.10;;;;;;6095360;23;20002;-80
2023/12/03 11:42:13;;;;;;;18.02;9.00;;;3.70;85.80;;;;;;6099545;23;20077;-81
2023/12/03 11:44:39;;;;;;;15.02;7.57;;;3.70;85.70;;;;;;6097977;23;20002;-80
2023/12/03 11:47:10;;;;;;;17.88;8.77;;;3.80;85.50;;;;;;6125549;23;20002;-80
2023/12/03 11:49:37;;;;;;;14.80;7.20;;;3.80;84.70;;;;;;6099463;23;20014;-81
2023/12/03 11:52:03;;;;;;;11.68;5.90;;;3.70;84.50;;;;;;6099348;23;20440;-81
2023/12/03 11:54:54;;;;;;;14.63;6.40;;;3.80;85.00;;;;;;6098295;23;20006;-81
2023/12/03 11:57:20;;;;;;;17.25;8.07;;;3.90;84.90;;;;;;6124245;23;20380;-81
2023/12/03 11:59:46;;;;;;;12.10;6.40;;;4.00;84.30;;;;;;6098776;23;20081;-79
2023/12/03 12:02:12;;;;;;;15.43;7.60;;;4.00;84.20;;;;;;6098478;23;20081;-81
2023/12/03 12:04:38;;;;;;;15.32;7.38;;;4.10;83.90;;;;;;6100454;23;20002;-81
2023/12/03 12:07:17;;;;;;;18.45;8.25;;;4.10;83.60;;;;;;6102097;23;20013;-79
2023/12/03 12:09:45;;;;;;;13.40;6.07;;;4.20;83.60;;;;;;6102327;23;20037;-81
2023/12/03 12:12:10;;;;;;;10.35;5.28;;;4.30;83.70;;;;;;6099084;23;20033;-80
2023/12/03 12:14:36;;;;;;;12.32;6.35;;;4.30;83.70;;;;;;6097481;23;20013;-81
2023/12/03 12:17:03;;;;;;;13.32;6.00;;;4.20;83.40;;;;;;6099791;23;20058;-81
2023/12/03 12:19:28;;;;;;;14.35;6.88;;;4.20;83.00;;;;;;6098006;23;20106;-81
2023/12/03 12:21:56;;;;;;;15.65;7.65;;;4.10;83.10;;;;;;6126090;23;20002;-80
2023/12/03 12:24:22;;;;;;;13.77;6.15;;;4.20;83.30;;;;;;6099275;23;20889;-81
2023/12/03 12:26:49;;;;;;;11.30;5.25;;;4.20;83.50;;;;;;6099010;23;20093;-79
2023/12/03 12:29:15;;;;;;;9.30;5.05;;;4.20;83.60;;;;;;6124309;23;20848;-81
2023/12/03 12:31:41;;;;;;;8.85;4.30;;;4.30;83.70;;;;;;6100199;23;20051;-79
2023/12/03 12:34:07;;;;;;;16.02;7.00;;;4.40;83.90;;;;;;6138357;23;19994;-80
2023/12/03 12:36:32;;;;;;;14.60;6.70;;;4.40;83.30;;;;;;6120120;23;20030;-80
2023/12/03 12:38:58;;;;;;;11.52;5.28;;;4.40;82.60;;;;;;6096323;23;20005;-82
2023/12/03 12:41:24;;;;;;;17.33;7.18;;;4.40;82.70;;;;;;6120037;23;20017;-79
2023/12/03 12:43:57;;;;;;;12.10;5.88;;;4.30;81.90;;;;;;6096716;23;20006;-79
2023/12/03 12:46:23;;;;;;;11.98;5.20;;;4.40;82.80;;;;;;6093159;23;20048;-81
2023/12/03 12:48:49;;;;;;;10.98;5.32;;;4.40;82.20;;;;;;6094439;23;20014;-79
2023/12/03 12:51:21;;;;;;;12.82;5.25;;;4.40;82.00;;;;;;6095135;23;20794;-80
2023/12/03 12:53:57;;;;;;;;;;;4.40;82.00;;;;;;6123970;23;19998;-81
2023/12/03 12:56:23;;;;;;;9.00;3.95;;;4.40;82.00;;;;;;6096108;23;19944;-79
2023/12/03 12:58:50;;;;;;;13.05;6.20;;;4.50;82.20;;;;;;6093669;23;20519;-78
2023/12/03 13:01:16;;;;;;;13.13;6.63;;;4.40;81.70;;;;;;6121027;23;20030;-77
2023/12/03 13:03:42;;;;;;;14.27;5.70;;;4.40;82.00;;;;;;6096226;23;20033;-80
2023/12/03 13:06:08;;;;;;;14.05;6.22;;;4.40;82.00;;;;;;6100703;23;20010;-78
2023/12/03 13:08:35;;;;;;;8.48;4.32;;;4.40;81.80;;;;;;6114306;23;20006;-79
2023/12/03 13:11:01;;;;;;;9.27;4.32;;;4.40;82.20;;;;;;6126780;23;20017;-80
2023/12/03 13:13:27;;;;;;;10.35;5.13;;;4.50;82.30;;;;;;6122737;23;19998;-81
2023/12/03 13:15:53;;;;;;;8.98;4.47;;;4.50;82.20;;;;;;6096787;23;20623;-80
2023/12/03 13:18:18;;;;;;;12.20;6.22;;;4.60;82.20;;;;;;6121605;23;20002;-79
2023/12/03 13:20:44;;;;;;;8.82;4.20;;;4.60;81.80;;;;;;6097227;23;20006;-79
2023/12/03 13:23:10;;;;;;;8.90;4.80;;;4.60;82.00;;;;;;6092905;23;20013;-78
2023/12/03 13:25:35;;;;;;;11.20;5.80;;;4.60;82.00;;;;;;6118855;23;20034;-79
2023/12/03 13:28:01;;;;;;;10.05;5.20;;;4.60;81.90;;;;;;6119725;23;20343;-78
2023/12/03 13:30:26;;;;;;;12.82;5.57;;;4.60;82.10;;;;;;6118702;23;20065;-80
2023/12/03 13:32:52;;;;;;;9.50;4.60;;;4.60;82.00;;;;;;6093242;23;20006;-78
2023/12/03 13:35:18;;;;;;;9.55;5.20;;;4.60;82.00;;;;;;6118649;23;20010;-80
2023/12/03 13:37:44;;;;;;;8.68;4.50;;;4.60;82.20;;;;;;6119360;23;20017;-79
2023/12/03 13:40:10;;;;;;;9.90;4.50;;;4.60;82.50;;;;;;6120360;23;20009;-79